Reeds Station, Illinois
Current Conditions -  °F | °C
As of 4:52 AM on Saturday 25 Oct 2014 (Local Time) from KMDH Reporting Station
Clear Clear  
Wind Chill: 57°   Ceiling: Unl
Heat Index: 57°   Visibility: 10mi
Dew Point: 54°   Wind: 5mph
Humidity: 89%   Direction: 180°S
Pressure: 30.01"   Gusts: NA
Location:  37.8209°N, 89.2055°W
Report Text: KMDH 250952Z AUTO 18004KT 10SM CLR 14/12 A3001 RMK AO2 SLP159 T01390122
Loading
Personal Weather Stations






























Interactive Weather Map
Tropical Storm Tracking
New forecast layout! Learn more

10-Day Weather Forecast

Advertisements
Track Severe Weather on mobile